sensor_id;sensor_type;location;lat;lon;timestamp;P1;durP1;ratioP1;P2;durP2;ratioP2
15285;SDS011;7744;52.172;10.668;2022-11-25T00:00:42;18.50;;;11.33;;
15285;SDS011;7744;52.172;10.668;2022-11-25T00:03:08;18.90;;;10.50;;
15285;SDS011;7744;52.172;10.668;2022-11-25T00:05:33;22.87;;;11.33;;
15285;SDS011;7744;52.172;10.668;2022-11-25T00:07:59;21.23;;;11.70;;
15285;SDS011;7744;52.172;10.668;2022-11-25T00:10:25;19.07;;;11.63;;
15285;SDS011;7744;52.172;10.668;2022-11-25T00:12:50;22.47;;;11.03;;
15285;SDS011;7744;52.172;10.668;2022-11-25T00:15:16;23.77;;;11.10;;
15285;SDS011;7744;52.172;10.668;2022-11-25T00:17:41;19.60;;;10.87;;
15285;SDS011;7744;52.172;10.668;2022-11-25T00:20:07;25.57;;;12.13;;
15285;SDS011;7744;52.172;10.668;2022-11-25T00:22:33;22.30;;;11.17;;
15285;SDS011;7744;52.172;10.668;2022-11-25T00:24:58;19.83;;;11.17;;
15285;SDS011;7744;52.172;10.668;2022-11-25T00:27:24;18.03;;;10.50;;
15285;SDS011;7744;52.172;10.668;2022-11-25T00:29:49;22.23;;;10.63;;
15285;SDS011;7744;52.172;10.668;2022-11-25T00:32:15;23.20;;;11.37;;
15285;SDS011;7744;52.172;10.668;2022-11-25T00:34:40;20.67;;;10.53;;
15285;SDS011;7744;52.172;10.668;2022-11-25T00:37:06;16.53;;;9.57;;
15285;SDS011;7744;52.172;10.668;2022-11-25T00:39:32;23.97;;;10.60;;
15285;SDS011;7744;52.172;10.668;2022-11-25T00:41:57;20.47;;;10.90;;
15285;SDS011;7744;52.172;10.668;2022-11-25T00:44:42;18.67;;;10.17;;
15285;SDS011;7744;52.172;10.668;2022-11-25T00:47:14;22.63;;;9.80;;
15285;SDS011;7744;52.172;10.668;2022-11-25T00:49:44;20.40;;;11.40;;
15285;SDS011;7744;52.172;10.668;2022-11-25T00:52:15;19.90;;;11.20;;
15285;SDS011;7744;52.172;10.668;2022-11-25T00:54:43;19.97;;;11.20;;
15285;SDS011;7744;52.172;10.668;2022-11-25T00:57:09;22.33;;;11.53;;
15285;SDS011;7744;52.172;10.668;2022-11-25T00:59:35;21.87;;;11.83;;
15285;SDS011;7744;52.172;10.668;2022-11-25T01:02:01;19.23;;;10.03;;
15285;SDS011;7744;52.172;10.668;2022-11-25T01:04:26;20.43;;;11.13;;
15285;SDS011;7744;52.172;10.668;2022-11-25T01:06:52;22.33;;;10.53;;
15285;SDS011;7744;52.172;10.668;2022-11-25T01:09:20;17.83;;;9.90;;
15285;SDS011;7744;52.172;10.668;2022-11-25T01:11:48;20.47;;;10.33;;
15285;SDS011;7744;52.172;10.668;2022-11-25T01:14:15;17.33;;;9.73;;
15285;SDS011;7744;52.172;10.668;2022-11-25T01:16:40;22.67;;;11.03;;
15285;SDS011;7744;52.172;10.668;2022-11-25T01:19:06;20.10;;;10.77;;
15285;SDS011;7744;52.172;10.668;2022-11-25T01:21:32;18.30;;;10.63;;
15285;SDS011;7744;52.172;10.668;2022-11-25T01:23:59;16.60;;;10.10;;
15285;SDS011;7744;52.172;10.668;2022-11-25T01:26:26;14.80;;;9.73;;
15285;SDS011;7744;52.172;10.668;2022-11-25T01:28:53;19.07;;;10.17;;
15285;SDS011;7744;52.172;10.668;2022-11-25T01:31:21;15.70;;;9.47;;
15285;SDS011;7744;52.172;10.668;2022-11-25T01:33:51;15.90;;;8.60;;
15285;SDS011;7744;52.172;10.668;2022-11-25T01:36:22;14.43;;;8.53;;
15285;SDS011;7744;52.172;10.668;2022-11-25T01:38:49;14.50;;;8.07;;
15285;SDS011;7744;52.172;10.668;2022-11-25T01:41:18;16.87;;;8.03;;
15285;SDS011;7744;52.172;10.668;2022-11-25T01:44:04;15.17;;;8.30;;
15285;SDS011;7744;52.172;10.668;2022-11-25T01:46:39;15.60;;;8.90;;
15285;SDS011;7744;52.172;10.668;2022-11-25T01:49:11;15.03;;;7.77;;
15285;SDS011;7744;52.172;10.668;2022-11-25T01:54:58;13.53;;;8.13;;
15285;SDS011;7744;52.172;10.668;2022-11-25T01:57:28;15.50;;;8.23;;
15285;SDS011;7744;52.172;10.668;2022-11-25T01:59:59;14.97;;;8.23;;
15285;SDS011;7744;52.172;10.668;2022-11-25T02:02:28;17.00;;;8.60;;
15285;SDS011;7744;52.172;10.668;2022-11-25T02:04:54;18.17;;;9.47;;
15285;SDS011;7744;52.172;10.668;2022-11-25T02:07:29;16.70;;;9.47;;
15285;SDS011;7744;52.172;10.668;2022-11-25T02:09:58;18.93;;;9.70;;
15285;SDS011;7744;52.172;10.668;2022-11-25T02:12:28;16.77;;;8.80;;
15285;SDS011;7744;52.172;10.668;2022-11-25T02:14:54;15.73;;;8.73;;
15285;SDS011;7744;52.172;10.668;2022-11-25T02:17:22;16.53;;;9.03;;
15285;SDS011;7744;52.172;10.668;2022-11-25T02:19:53;19.27;;;8.43;;
15285;SDS011;7744;52.172;10.668;2022-11-25T02:25:28;15.70;;;8.47;;
15285;SDS011;7744;52.172;10.668;2022-11-25T02:28:05;15.43;;;8.60;;
15285;SDS011;7744;52.172;10.668;2022-11-25T02:30:40;17.50;;;9.00;;
15285;SDS011;7744;52.172;10.668;2022-11-25T02:33:06;15.60;;;8.77;;
15285;SDS011;7744;52.172;10.668;2022-11-25T02:35:33;15.47;;;8.77;;
15285;SDS011;7744;52.172;10.668;2022-11-25T02:38:11;13.87;;;8.70;;
15285;SDS011;7744;52.172;10.668;2022-11-25T02:40:54;15.27;;;10.13;;
15285;SDS011;7744;52.172;10.668;2022-11-25T02:43:25;19.20;;;9.13;;
15285;SDS011;7744;52.172;10.668;2022-11-25T02:48:23;18.40;;;10.70;;
15285;SDS011;7744;52.172;10.668;2022-11-25T02:50:49;21.10;;;12.10;;
15285;SDS011;7744;52.172;10.668;2022-11-25T02:53:14;23.10;;;12.83;;
15285;SDS011;7744;52.172;10.668;2022-11-25T02:55:41;21.23;;;12.23;;
15285;SDS011;7744;52.172;10.668;2022-11-25T02:58:07;27.87;;;14.80;;
15285;SDS011;7744;52.172;10.668;2022-11-25T03:00:33;21.33;;;12.17;;
15285;SDS011;7744;52.172;10.668;2022-11-25T03:02:59;33.00;;;17.03;;
15285;SDS011;7744;52.172;10.668;2022-11-25T03:05:25;19.67;;;12.53;;
15285;SDS011;7744;52.172;10.668;2022-11-25T03:07:51;37.73;;;20.57;;
15285;SDS011;7744;52.172;10.668;2022-11-25T03:10:17;29.77;;;16.60;;
15285;SDS011;7744;52.172;10.668;2022-11-25T03:12:43;28.10;;;14.60;;
15285;SDS011;7744;52.172;10.668;2022-11-25T03:15:08;34.30;;;16.13;;
15285;SDS011;7744;52.172;10.668;2022-11-25T03:17:34;24.20;;;14.03;;
15285;SDS011;7744;52.172;10.668;2022-11-25T03:20:00;28.47;;;16.50;;
15285;SDS011;7744;52.172;10.668;2022-11-25T03:22:26;25.17;;;15.20;;
15285;SDS011;7744;52.172;10.668;2022-11-25T03:24:52;25.70;;;14.83;;
15285;SDS011;7744;52.172;10.668;2022-11-25T03:27:17;29.50;;;16.90;;
15285;SDS011;7744;52.172;10.668;2022-11-25T03:29:43;25.83;;;15.60;;
15285;SDS011;7744;52.172;10.668;2022-11-25T03:32:09;26.27;;;15.63;;
15285;SDS011;7744;52.172;10.668;2022-11-25T03:34:34;27.33;;;16.40;;
15285;SDS011;7744;52.172;10.668;2022-11-25T03:37:00;29.93;;;16.73;;
15285;SDS011;7744;52.172;10.668;2022-11-25T03:39:26;27.50;;;14.97;;
15285;SDS011;7744;52.172;10.668;2022-11-25T03:41:51;25.53;;;15.00;;
15285;SDS011;7744;52.172;10.668;2022-11-25T03:44:17;24.23;;;15.10;;
15285;SDS011;7744;52.172;10.668;2022-11-25T03:46:42;23.10;;;13.10;;
15285;SDS011;7744;52.172;10.668;2022-11-25T03:49:08;24.80;;;14.13;;
15285;SDS011;7744;52.172;10.668;2022-11-25T03:51:33;24.27;;;13.73;;
15285;SDS011;7744;52.172;10.668;2022-11-25T03:53:59;19.63;;;12.17;;
15285;SDS011;7744;52.172;10.668;2022-11-25T03:56:25;21.00;;;12.17;;
15285;SDS011;7744;52.172;10.668;2022-11-25T03:58:50;21.63;;;11.70;;
15285;SDS011;7744;52.172;10.668;2022-11-25T04:01:16;21.97;;;11.60;;
15285;SDS011;7744;52.172;10.668;2022-11-25T04:03:42;25.40;;;12.30;;
15285;SDS011;7744;52.172;10.668;2022-11-25T04:06:07;20.43;;;10.70;;
15285;SDS011;7744;52.172;10.668;2022-11-25T04:08:33;15.93;;;10.63;;
15285;SDS011;7744;52.172;10.668;2022-11-25T04:10:59;14.40;;;9.83;;
15285;SDS011;7744;52.172;10.668;2022-11-25T04:13:24;15.90;;;9.57;;
15285;SDS011;7744;52.172;10.668;2022-11-25T04:15:50;18.80;;;9.70;;
15285;SDS011;7744;52.172;10.668;2022-11-25T04:18:16;14.90;;;9.03;;
15285;SDS011;7744;52.172;10.668;2022-11-25T04:20:43;19.60;;;8.43;;
15285;SDS011;7744;52.172;10.668;2022-11-25T04:23:09;16.10;;;8.80;;
15285;SDS011;7744;52.172;10.668;2022-11-25T04:25:36;12.90;;;7.57;;
15285;SDS011;7744;52.172;10.668;2022-11-25T04:28:02;15.57;;;8.70;;
15285;SDS011;7744;52.172;10.668;2022-11-25T04:30:28;16.30;;;9.33;;
15285;SDS011;7744;52.172;10.668;2022-11-25T04:32:54;15.83;;;8.93;;
15285;SDS011;7744;52.172;10.668;2022-11-25T04:35:19;17.63;;;8.77;;
15285;SDS011;7744;52.172;10.668;2022-11-25T04:37:45;14.33;;;8.13;;
15285;SDS011;7744;52.172;10.668;2022-11-25T04:40:11;16.57;;;8.63;;
15285;SDS011;7744;52.172;10.668;2022-11-25T04:42:37;14.40;;;8.70;;
15285;SDS011;7744;52.172;10.668;2022-11-25T04:45:07;13.27;;;8.83;;
15285;SDS011;7744;52.172;10.668;2022-11-25T04:47:39;14.93;;;8.00;;
15285;SDS011;7744;52.172;10.668;2022-11-25T04:50:05;10.80;;;7.97;;
15285;SDS011;7744;52.172;10.668;2022-11-25T04:52:33;18.23;;;8.17;;
15285;SDS011;7744;52.172;10.668;2022-11-25T04:54:59;13.40;;;7.57;;
15285;SDS011;7744;52.172;10.668;2022-11-25T04:57:25;13.37;;;7.00;;
15285;SDS011;7744;52.172;10.668;2022-11-25T04:59:51;12.80;;;6.87;;
15285;SDS011;7744;52.172;10.668;2022-11-25T05:04:44;10.57;;;6.67;;
15285;SDS011;7744;52.172;10.668;2022-11-25T05:07:12;12.40;;;6.47;;
15285;SDS011;7744;52.172;10.668;2022-11-25T05:09:39;13.77;;;6.90;;
15285;SDS011;7744;52.172;10.668;2022-11-25T05:12:06;11.43;;;5.80;;
15285;SDS011;7744;52.172;10.668;2022-11-25T05:14:32;12.13;;;5.63;;
15285;SDS011;7744;52.172;10.668;2022-11-25T05:16:59;18.27;;;6.50;;
15285;SDS011;7744;52.172;10.668;2022-11-25T05:19:26;13.53;;;6.43;;
15285;SDS011;7744;52.172;10.668;2022-11-25T05:21:52;10.83;;;6.40;;
15285;SDS011;7744;52.172;10.668;2022-11-25T05:24:18;14.83;;;4.97;;
15285;SDS011;7744;52.172;10.668;2022-11-25T05:26:43;13.97;;;5.60;;
15285;SDS011;7744;52.172;10.668;2022-11-25T05:29:09;12.23;;;5.33;;
15285;SDS011;7744;52.172;10.668;2022-11-25T05:31:35;14.90;;;6.87;;
15285;SDS011;7744;52.172;10.668;2022-11-25T05:34:01;14.47;;;6.77;;
15285;SDS011;7744;52.172;10.668;2022-11-25T05:36:27;12.87;;;6.00;;
15285;SDS011;7744;52.172;10.668;2022-11-25T05:38:54;11.83;;;6.53;;
15285;SDS011;7744;52.172;10.668;2022-11-25T05:41:20;12.33;;;6.57;;
15285;SDS011;7744;52.172;10.668;2022-11-25T05:43:46;15.47;;;7.37;;
15285;SDS011;7744;52.172;10.668;2022-11-25T05:46:12;18.10;;;7.47;;
15285;SDS011;7744;52.172;10.668;2022-11-25T05:48:38;16.40;;;6.80;;
15285;SDS011;7744;52.172;10.668;2022-11-25T05:51:04;15.87;;;6.67;;
15285;SDS011;7744;52.172;10.668;2022-11-25T05:53:30;12.10;;;6.20;;
15285;SDS011;7744;52.172;10.668;2022-11-25T05:55:57;19.80;;;6.80;;
15285;SDS011;7744;52.172;10.668;2022-11-25T05:58:24;11.97;;;6.20;;
15285;SDS011;7744;52.172;10.668;2022-11-25T06:00:50;14.67;;;6.27;;
15285;SDS011;7744;52.172;10.668;2022-11-25T06:03:16;12.60;;;6.60;;
15285;SDS011;7744;52.172;10.668;2022-11-25T06:05:42;14.43;;;6.53;;
15285;SDS011;7744;52.172;10.668;2022-11-25T06:08:08;8.77;;;5.40;;
15285;SDS011;7744;52.172;10.668;2022-11-25T06:10:36;14.83;;;6.67;;
15285;SDS011;7744;52.172;10.668;2022-11-25T06:13:03;14.27;;;6.70;;
15285;SDS011;7744;52.172;10.668;2022-11-25T06:15:29;9.93;;;5.07;;
15285;SDS011;7744;52.172;10.668;2022-11-25T06:17:54;11.70;;;5.87;;
15285;SDS011;7744;52.172;10.668;2022-11-25T06:20:20;13.23;;;5.73;;
15285;SDS011;7744;52.172;10.668;2022-11-25T06:22:45;11.70;;;5.23;;
15285;SDS011;7744;52.172;10.668;2022-11-25T06:25:11;13.10;;;5.80;;
15285;SDS011;7744;52.172;10.668;2022-11-25T06:27:37;10.83;;;5.80;;
15285;SDS011;7744;52.172;10.668;2022-11-25T06:30:02;10.40;;;5.37;;
15285;SDS011;7744;52.172;10.668;2022-11-25T06:32:28;11.93;;;6.70;;
15285;SDS011;7744;52.172;10.668;2022-11-25T06:34:54;13.00;;;6.67;;
15285;SDS011;7744;52.172;10.668;2022-11-25T06:37:20;13.77;;;5.80;;
15285;SDS011;7744;52.172;10.668;2022-11-25T06:39:45;11.23;;;5.93;;
15285;SDS011;7744;52.172;10.668;2022-11-25T06:42:11;12.43;;;5.27;;
15285;SDS011;7744;52.172;10.668;2022-11-25T06:44:37;13.57;;;6.33;;
15285;SDS011;7744;52.172;10.668;2022-11-25T06:47:02;12.60;;;6.33;;
15285;SDS011;7744;52.172;10.668;2022-11-25T06:49:28;16.40;;;7.87;;
15285;SDS011;7744;52.172;10.668;2022-11-25T06:51:54;15.43;;;7.57;;
15285;SDS011;7744;52.172;10.668;2022-11-25T06:54:19;15.33;;;7.40;;
15285;SDS011;7744;52.172;10.668;2022-11-25T06:56:45;18.50;;;7.23;;
15285;SDS011;7744;52.172;10.668;2022-11-25T06:59:15;17.43;;;7.60;;
15285;SDS011;7744;52.172;10.668;2022-11-25T07:01:42;16.67;;;7.27;;
15285;SDS011;7744;52.172;10.668;2022-11-25T07:04:08;15.30;;;7.17;;
15285;SDS011;7744;52.172;10.668;2022-11-25T07:06:34;13.47;;;6.83;;
15285;SDS011;7744;52.172;10.668;2022-11-25T07:09:00;16.30;;;7.40;;
15285;SDS011;7744;52.172;10.668;2022-11-25T07:11:44;14.27;;;6.70;;
15285;SDS011;7744;52.172;10.668;2022-11-25T07:14:11;12.57;;;6.23;;
15285;SDS011;7744;52.172;10.668;2022-11-25T07:16:39;11.60;;;6.10;;
15285;SDS011;7744;52.172;10.668;2022-11-25T07:19:05;14.63;;;6.70;;
15285;SDS011;7744;52.172;10.668;2022-11-25T07:21:32;18.17;;;5.93;;
15285;SDS011;7744;52.172;10.668;2022-11-25T07:23:59;23.80;;;6.80;;
15285;SDS011;7744;52.172;10.668;2022-11-25T07:26:27;14.80;;;5.73;;
15285;SDS011;7744;52.172;10.668;2022-11-25T07:28:54;11.20;;;5.90;;
15285;SDS011;7744;52.172;10.668;2022-11-25T07:31:24;10.73;;;5.40;;
15285;SDS011;7744;52.172;10.668;2022-11-25T07:34:04;15.30;;;5.87;;
15285;SDS011;7744;52.172;10.668;2022-11-25T07:36:33;14.93;;;5.73;;
15285;SDS011;7744;52.172;10.668;2022-11-25T07:39:01;13.40;;;7.60;;
15285;SDS011;7744;52.172;10.668;2022-11-25T07:41:31;15.43;;;7.10;;
15285;SDS011;7744;52.172;10.668;2022-11-25T07:43:58;13.67;;;6.13;;
15285;SDS011;7744;52.172;10.668;2022-11-25T07:46:32;13.20;;;6.00;;
15285;SDS011;7744;52.172;10.668;2022-11-25T07:49:00;17.80;;;5.70;;
15285;SDS011;7744;52.172;10.668;2022-11-25T07:51:35;14.53;;;5.60;;
15285;SDS011;7744;52.172;10.668;2022-11-25T07:54:04;21.20;;;6.17;;
15285;SDS011;7744;52.172;10.668;2022-11-25T07:56:35;12.43;;;5.77;;
15285;SDS011;7744;52.172;10.668;2022-11-25T07:59:03;14.00;;;7.87;;
15285;SDS011;7744;52.172;10.668;2022-11-25T08:01:29;13.70;;;7.27;;
15285;SDS011;7744;52.172;10.668;2022-11-25T08:03:55;22.00;;;12.47;;
15285;SDS011;7744;52.172;10.668;2022-11-25T08:06:22;16.47;;;7.73;;
15285;SDS011;7744;52.172;10.668;2022-11-25T08:08:50;59.20;;;41.90;;
15285;SDS011;7744;52.172;10.668;2022-11-25T08:11:20;30.00;;;17.90;;
15285;SDS011;7744;52.172;10.668;2022-11-25T08:13:47;14.63;;;10.20;;
15285;SDS011;7744;52.172;10.668;2022-11-25T08:16:14;17.40;;;7.97;;
15285;SDS011;7744;52.172;10.668;2022-11-25T08:18:42;18.70;;;9.27;;
15285;SDS011;7744;52.172;10.668;2022-11-25T08:21:08;16.20;;;6.97;;
15285;SDS011;7744;52.172;10.668;2022-11-25T08:23:38;15.07;;;6.47;;
15285;SDS011;7744;52.172;10.668;2022-11-25T08:26:06;25.53;;;15.60;;
15285;SDS011;7744;52.172;10.668;2022-11-25T08:28:34;13.63;;;7.20;;
15285;SDS011;7744;52.172;10.668;2022-11-25T08:31:01;16.87;;;6.20;;
15285;SDS011;7744;52.172;10.668;2022-11-25T08:33:28;28.37;;;16.40;;
15285;SDS011;7744;52.172;10.668;2022-11-25T08:35:53;16.73;;;8.10;;
15285;SDS011;7744;52.172;10.668;2022-11-25T08:38:19;14.57;;;7.17;;
15285;SDS011;7744;52.172;10.668;2022-11-25T08:40:45;12.00;;;7.97;;
15285;SDS011;7744;52.172;10.668;2022-11-25T08:43:11;29.27;;;16.87;;
15285;SDS011;7744;52.172;10.668;2022-11-25T08:45:37;34.13;;;21.03;;
15285;SDS011;7744;52.172;10.668;2022-11-25T08:48:04;26.60;;;14.20;;
15285;SDS011;7744;52.172;10.668;2022-11-25T08:50:30;46.40;;;29.90;;
15285;SDS011;7744;52.172;10.668;2022-11-25T08:52:56;24.03;;;12.30;;
15285;SDS011;7744;52.172;10.668;2022-11-25T08:55:22;18.40;;;11.80;;
15285;SDS011;7744;52.172;10.668;2022-11-25T08:57:50;14.27;;;8.07;;
15285;SDS011;7744;52.172;10.668;2022-11-25T09:00:16;18.33;;;11.33;;
15285;SDS011;7744;52.172;10.668;2022-11-25T09:02:42;26.40;;;18.23;;
15285;SDS011;7744;52.172;10.668;2022-11-25T09:05:10;16.60;;;7.40;;
15285;SDS011;7744;52.172;10.668;2022-11-25T09:07:37;14.67;;;7.30;;
15285;SDS011;7744;52.172;10.668;2022-11-25T09:10:03;9.77;;;6.60;;
15285;SDS011;7744;52.172;10.668;2022-11-25T09:12:30;18.53;;;9.53;;
15285;SDS011;7744;52.172;10.668;2022-11-25T09:14:56;14.97;;;6.97;;
15285;SDS011;7744;52.172;10.668;2022-11-25T09:17:22;16.93;;;7.77;;
15285;SDS011;7744;52.172;10.668;2022-11-25T09:19:47;16.00;;;8.23;;
15285;SDS011;7744;52.172;10.668;2022-11-25T09:22:13;11.57;;;6.10;;
15285;SDS011;7744;52.172;10.668;2022-11-25T09:24:39;10.67;;;6.10;;
15285;SDS011;7744;52.172;10.668;2022-11-25T09:27:05;21.43;;;14.10;;
15285;SDS011;7744;52.172;10.668;2022-11-25T09:29:31;12.17;;;6.57;;
15285;SDS011;7744;52.172;10.668;2022-11-25T09:31:57;12.13;;;6.63;;
15285;SDS011;7744;52.172;10.668;2022-11-25T09:34:22;14.67;;;6.23;;
15285;SDS011;7744;52.172;10.668;2022-11-25T09:36:48;13.00;;;5.93;;
15285;SDS011;7744;52.172;10.668;2022-11-25T09:39:14;13.00;;;6.47;;
15285;SDS011;7744;52.172;10.668;2022-11-25T09:42:14;14.53;;;6.80;;
15285;SDS011;7744;52.172;10.668;2022-11-25T09:50:47;14.27;;;5.90;;
15285;SDS011;7744;52.172;10.668;2022-11-25T09:55:56;15.03;;;7.70;;
15285;SDS011;7744;52.172;10.668;2022-11-25T10:01:12;11.07;;;5.60;;
15285;SDS011;7744;52.172;10.668;2022-11-25T10:03:45;10.83;;;5.67;;
15285;SDS011;7744;52.172;10.668;2022-11-25T10:06:15;11.40;;;5.33;;
15285;SDS011;7744;52.172;10.668;2022-11-25T10:08:45;11.63;;;4.57;;
15285;SDS011;7744;52.172;10.668;2022-11-25T10:24:39;10.53;;;5.23;;
15285;SDS011;7744;52.172;10.668;2022-11-25T10:27:05;9.77;;;5.33;;
15285;SDS011;7744;52.172;10.668;2022-11-25T10:29:38;9.57;;;5.47;;
15285;SDS011;7744;52.172;10.668;2022-11-25T10:32:19;11.63;;;6.03;;
15285;SDS011;7744;52.172;10.668;2022-11-25T10:34:49;12.87;;;5.43;;
15285;SDS011;7744;52.172;10.668;2022-11-25T10:37:30;9.97;;;5.10;;
15285;SDS011;7744;52.172;10.668;2022-11-25T10:40:02;11.47;;;5.43;;
15285;SDS011;7744;52.172;10.668;2022-11-25T10:42:28;13.20;;;6.23;;
15285;SDS011;7744;52.172;10.668;2022-11-25T10:44:54;12.27;;;5.83;;
15285;SDS011;7744;52.172;10.668;2022-11-25T10:50:10;14.87;;;6.87;;
15285;SDS011;7744;52.172;10.668;2022-11-25T10:55:23;13.27;;;6.40;;
15285;SDS011;7744;52.172;10.668;2022-11-25T10:57:51;11.27;;;5.63;;
15285;SDS011;7744;52.172;10.668;2022-11-25T11:00:27;12.40;;;5.77;;
15285;SDS011;7744;52.172;10.668;2022-11-25T11:02:59;9.30;;;5.30;;
15285;SDS011;7744;52.172;10.668;2022-11-25T11:05:47;12.63;;;5.30;;
15285;SDS011;7744;52.172;10.668;2022-11-25T11:08:20;8.53;;;4.57;;
15285;SDS011;7744;52.172;10.668;2022-11-25T11:11:09;11.43;;;5.40;;
15285;SDS011;7744;52.172;10.668;2022-11-25T11:13:44;13.63;;;7.03;;
15285;SDS011;7744;52.172;10.668;2022-11-25T11:16:55;13.50;;;6.20;;
15285;SDS011;7744;52.172;10.668;2022-11-25T11:19:05;7.90;;;6.90;;
15285;SDS011;7744;52.172;10.668;2022-11-25T11:21:36;7.47;;;4.53;;
15285;SDS011;7744;52.172;10.668;2022-11-25T11:24:22;8.77;;;5.63;;
15285;SDS011;7744;52.172;10.668;2022-11-25T11:26:59;9.20;;;5.40;;
15285;SDS011;7744;52.172;10.668;2022-11-25T11:29:28;15.00;;;6.53;;
15285;SDS011;7744;52.172;10.668;2022-11-25T11:31:57;8.83;;;5.87;;
15285;SDS011;7744;52.172;10.668;2022-11-25T11:37:41;9.03;;;5.40;;
15285;SDS011;7744;52.172;10.668;2022-11-25T11:42:56;15.83;;;7.27;;
15285;SDS011;7744;52.172;10.668;2022-11-25T11:45:57;8.90;;;5.17;;
15285;SDS011;7744;52.172;10.668;2022-11-25T11:48:57;10.40;;;5.60;;
15285;SDS011;7744;52.172;10.668;2022-11-25T11:51:41;12.10;;;6.47;;
15285;SDS011;7744;52.172;10.668;2022-11-25T11:56:55;12.53;;;5.73;;
15285;SDS011;7744;52.172;10.668;2022-11-25T12:04:52;10.80;;;5.63;;
15285;SDS011;7744;52.172;10.668;2022-11-25T12:12:38;10.27;;;5.90;;
15285;SDS011;7744;52.172;10.668;2022-11-25T12:15:32;7.70;;;6.33;;
15285;SDS011;7744;52.172;10.668;2022-11-25T12:18:08;8.57;;;6.50;;
15285;SDS011;7744;52.172;10.668;2022-11-25T12:20:58;10.60;;;6.00;;
15285;SDS011;7744;52.172;10.668;2022-11-25T12:26:18;19.63;;;10.43;;
15285;SDS011;7744;52.172;10.668;2022-11-25T12:29:04;15.70;;;8.73;;
15285;SDS011;7744;52.172;10.668;2022-11-25T12:31:36;10.07;;;4.67;;
15285;SDS011;7744;52.172;10.668;2022-11-25T12:34:19;12.63;;;6.07;;
15285;SDS011;7744;52.172;10.668;2022-11-25T12:36:57;18.20;;;9.00;;
15285;SDS011;7744;52.172;10.668;2022-11-25T12:39:40;16.90;;;7.20;;
15285;SDS011;7744;52.172;10.668;2022-11-25T12:42:24;7.80;;;2.87;;
15285;SDS011;7744;52.172;10.668;2022-11-25T12:47:49;13.00;;;6.10;;
15285;SDS011;7744;52.172;10.668;2022-11-25T12:50:23;9.30;;;4.23;;
15285;SDS011;7744;52.172;10.668;2022-11-25T12:53:26;8.87;;;3.83;;
15285;SDS011;7744;52.172;10.668;2022-11-25T12:56:01;7.90;;;3.10;;
15285;SDS011;7744;52.172;10.668;2022-11-25T13:07:21;6.83;;;3.27;;
15285;SDS011;7744;52.172;10.668;2022-11-25T13:15:38;9.87;;;3.40;;
15285;SDS011;7744;52.172;10.668;2022-11-25T13:18:11;7.77;;;3.53;;
15285;SDS011;7744;52.172;10.668;2022-11-25T13:20:51;5.30;;;2.90;;
15285;SDS011;7744;52.172;10.668;2022-11-25T13:25:46;7.30;;;2.90;;
15285;SDS011;7744;52.172;10.668;2022-11-25T13:28:27;7.10;;;2.77;;
15285;SDS011;7744;52.172;10.668;2022-11-25T13:31:19;6.63;;;2.83;;
15285;SDS011;7744;52.172;10.668;2022-11-25T13:36:48;7.97;;;3.07;;
15285;SDS011;7744;52.172;10.668;2022-11-25T13:39:16;6.80;;;3.10;;
15285;SDS011;7744;52.172;10.668;2022-11-25T13:42:01;8.40;;;3.50;;
15285;SDS011;7744;52.172;10.668;2022-11-25T13:44:58;6.83;;;3.10;;
15285;SDS011;7744;52.172;10.668;2022-11-25T13:52:34;9.60;;;4.20;;
15285;SDS011;7744;52.172;10.668;2022-11-25T13:55:09;8.53;;;4.27;;
15285;SDS011;7744;52.172;10.668;2022-11-25T13:57:59;9.20;;;5.00;;
15285;SDS011;7744;52.172;10.668;2022-11-25T14:00:49;22.60;;;15.63;;
15285;SDS011;7744;52.172;10.668;2022-11-25T14:14:58;6.07;;;4.23;;
15285;SDS011;7744;52.172;10.668;2022-11-25T14:17:31;10.87;;;6.30;;
15285;SDS011;7744;52.172;10.668;2022-11-25T14:20:03;13.33;;;8.10;;
15285;SDS011;7744;52.172;10.668;2022-11-25T14:25:54;9.37;;;6.17;;
15285;SDS011;7744;52.172;10.668;2022-11-25T14:31:29;11.83;;;9.10;;
15285;SDS011;7744;52.172;10.668;2022-11-25T14:37:07;9.77;;;6.50;;
15285;SDS011;7744;52.172;10.668;2022-11-25T14:42:08;8.67;;;6.43;;
15285;SDS011;7744;52.172;10.668;2022-11-25T14:44:38;10.37;;;7.40;;
15285;SDS011;7744;52.172;10.668;2022-11-25T14:47:10;8.63;;;6.30;;
15285;SDS011;7744;52.172;10.668;2022-11-25T14:49:49;9.30;;;5.23;;
15285;SDS011;7744;52.172;10.668;2022-11-25T14:52:28;10.87;;;5.43;;
15285;SDS011;7744;52.172;10.668;2022-11-25T14:54:57;10.07;;;5.70;;
15285;SDS011;7744;52.172;10.668;2022-11-25T14:57:25;9.47;;;4.90;;
15285;SDS011;7744;52.172;10.668;2022-11-25T14:59:53;7.47;;;4.60;;
15285;SDS011;7744;52.172;10.668;2022-11-25T15:02:22;7.00;;;4.63;;
15285;SDS011;7744;52.172;10.668;2022-11-25T15:04:51;7.50;;;4.10;;
15285;SDS011;7744;52.172;10.668;2022-11-25T15:07:20;7.87;;;4.00;;
15285;SDS011;7744;52.172;10.668;2022-11-25T15:09:46;7.50;;;4.67;;
15285;SDS011;7744;52.172;10.668;2022-11-25T15:12:17;7.57;;;4.40;;
15285;SDS011;7744;52.172;10.668;2022-11-25T15:14:52;5.73;;;4.30;;
15285;SDS011;7744;52.172;10.668;2022-11-25T15:17:24;14.47;;;7.37;;
15285;SDS011;7744;52.172;10.668;2022-11-25T15:19:56;47.40;;;34.40;;
15285;SDS011;7744;52.172;10.668;2022-11-25T15:22:26;48.10;;;32.37;;
15285;SDS011;7744;52.172;10.668;2022-11-25T15:24:53;43.70;;;26.97;;
15285;SDS011;7744;52.172;10.668;2022-11-25T15:27:31;38.53;;;21.90;;
15285;SDS011;7744;52.172;10.668;2022-11-25T15:29:57;32.13;;;16.07;;
15285;SDS011;7744;52.172;10.668;2022-11-25T15:32:27;73.93;;;51.10;;
15285;SDS011;7744;52.172;10.668;2022-11-25T15:34:55;51.33;;;29.50;;
15285;SDS011;7744;52.172;10.668;2022-11-25T15:37:22;40.22;;;26.35;;
15285;SDS011;7744;52.172;10.668;2022-11-25T15:39:48;29.70;;;19.43;;
15285;SDS011;7744;52.172;10.668;2022-11-25T15:42:16;25.23;;;15.60;;
15285;SDS011;7744;52.172;10.668;2022-11-25T15:44:59;16.67;;;11.80;;
15285;SDS011;7744;52.172;10.668;2022-11-25T15:47:32;14.33;;;8.93;;
15285;SDS011;7744;52.172;10.668;2022-11-25T15:52:38;13.13;;;6.93;;
15285;SDS011;7744;52.172;10.668;2022-11-25T15:55:19;10.77;;;8.07;;
15285;SDS011;7744;52.172;10.668;2022-11-25T15:57:54;8.27;;;5.30;;
15285;SDS011;7744;52.172;10.668;2022-11-25T16:00:26;9.13;;;5.60;;
15285;SDS011;7744;52.172;10.668;2022-11-25T16:02:53;8.20;;;4.57;;
15285;SDS011;7744;52.172;10.668;2022-11-25T16:05:26;7.33;;;4.93;;
15285;SDS011;7744;52.172;10.668;2022-11-25T16:10:29;8.53;;;5.00;;
15285;SDS011;7744;52.172;10.668;2022-11-25T16:15:48;8.23;;;5.90;;
15285;SDS011;7744;52.172;10.668;2022-11-25T16:18:16;11.97;;;6.07;;
15285;SDS011;7744;52.172;10.668;2022-11-25T16:20:50;8.80;;;5.43;;
15285;SDS011;7744;52.172;10.668;2022-11-25T16:23:21;9.53;;;5.00;;
15285;SDS011;7744;52.172;10.668;2022-11-25T16:25:53;9.47;;;5.23;;
15285;SDS011;7744;52.172;10.668;2022-11-25T16:28:35;11.23;;;5.53;;
15285;SDS011;7744;52.172;10.668;2022-11-25T16:31:01;7.87;;;5.40;;
15285;SDS011;7744;52.172;10.668;2022-11-25T16:33:27;10.07;;;5.23;;
15285;SDS011;7744;52.172;10.668;2022-11-25T16:35:53;9.53;;;5.23;;
15285;SDS011;7744;52.172;10.668;2022-11-25T16:38:18;11.20;;;5.70;;
15285;SDS011;7744;52.172;10.668;2022-11-25T16:40:44;9.53;;;6.07;;
15285;SDS011;7744;52.172;10.668;2022-11-25T16:43:23;10.53;;;6.23;;
15285;SDS011;7744;52.172;10.668;2022-11-25T16:45:51;10.77;;;6.23;;
15285;SDS011;7744;52.172;10.668;2022-11-25T16:48:19;8.53;;;5.53;;
15285;SDS011;7744;52.172;10.668;2022-11-25T16:50:46;9.80;;;6.20;;